createdAt,value
2022-11-01T00:01:05.986Z,11.8
2022-11-01T00:15:41.666Z,12.1
2022-11-01T00:30:16.968Z,12.3
2022-11-01T00:44:52.560Z,13.7
2022-11-01T00:59:28.162Z,13.9
2022-11-01T01:14:03.838Z,13.8
2022-11-01T01:28:45.295Z,13.6
2022-11-01T01:43:18.289Z,13.5
2022-11-01T01:57:55.006Z,13.2
2022-11-01T02:12:30.017Z,13.2
2022-11-01T02:27:04.923Z,14
2022-11-01T02:41:40.594Z,14.4
2022-11-01T02:56:15.694Z,14.2
2022-11-01T03:10:52.083Z,14.4
2022-11-01T03:25:33.347Z,14.7
2022-11-01T03:40:11.161Z,14.7
2022-11-01T03:54:43.568Z,14.8
2022-11-01T04:09:18.941Z,15.1
2022-11-01T04:23:54.405Z,15.3
2022-11-01T04:38:29.548Z,15.5
2022-11-01T04:53:06.316Z,15.7
2022-11-01T05:07:38.221Z,15.8
2022-11-01T05:22:13.816Z,15.7
2022-11-01T05:36:49.475Z,15.7
2022-11-01T05:51:25.063Z,15.6
2022-11-01T06:05:58.749Z,15.8
2022-11-01T06:20:33.649Z,15.8
2022-11-01T06:35:08.235Z,15.8
2022-11-01T06:49:47.626Z,15.7
2022-11-01T07:04:26.097Z,15.7
2022-11-01T07:18:57.088Z,15.7
2022-11-01T07:33:30.961Z,15.6
2022-11-01T07:48:07.025Z,15.5
2022-11-01T08:02:42.561Z,15
2022-11-01T08:17:18.048Z,12.5
2022-11-01T08:31:52.319Z,11.8
2022-11-01T08:46:29.517Z,11
2022-11-01T09:01:09.613Z,10.3
2022-11-01T09:15:48.209Z,10.5
2022-11-01T09:30:23.189Z,7.2
2022-11-01T09:44:52.572Z,7.6
2022-11-01T09:59:26.971Z,6.8
2022-11-01T10:14:07.872Z,7.1
2022-11-01T10:28:45.975Z,6.8
2022-11-01T10:43:17.917Z,7.1
2022-11-01T10:57:52.903Z,7.2
2022-11-01T11:12:28.091Z,7.3
2022-11-01T11:27:08.118Z,7.9
2022-11-01T11:41:48.305Z,8
2022-11-01T11:56:25.523Z,7.6
2022-11-01T12:11:03.190Z,6.4
2022-11-01T12:25:41.733Z,7
2022-11-01T12:40:13.753Z,6.9
2022-11-01T12:54:50.079Z,7
2022-11-01T13:09:25.764Z,7
2022-11-01T13:23:58.660Z,6.6
2022-11-01T13:38:34.033Z,6.4
2022-11-01T13:53:09.554Z,6.5
2022-11-01T14:07:44.915Z,6.8
2022-11-01T14:22:20.426Z,6.3
2022-11-01T14:36:54.650Z,6.7
2022-11-01T14:51:29.963Z,6.3
2022-11-01T15:06:04.821Z,6.2
2022-11-01T15:20:39.648Z,6.3
2022-11-01T15:35:14.409Z,6.4
2022-11-01T15:49:49.138Z,6.6
2022-11-01T16:04:23.578Z,6.4
2022-11-01T16:18:58.749Z,6.4
2022-11-01T16:33:32.603Z,6.5
2022-11-01T16:48:07.238Z,6.6
2022-11-01T17:02:46.471Z,6.6
2022-11-01T17:17:18.242Z,6.6
2022-11-01T17:31:52.902Z,7
2022-11-01T17:46:28.238Z,7.1
2022-11-01T18:01:04.675Z,7.3
2022-11-01T18:15:38.500Z,7.4
2022-11-01T18:30:13.572Z,7.5
2022-11-01T18:44:54.928Z,7.5
2022-11-01T18:59:27.340Z,7.4
2022-11-01T19:14:07.971Z,7.5
2022-11-01T19:28:39.648Z,7.7
2022-11-01T19:43:18.258Z,7.6
2022-11-01T19:57:50.477Z,7.6
2022-11-01T20:12:27.463Z,7.7
2022-11-01T20:26:59.904Z,7.9
2022-11-01T20:41:34.904Z,7.8
2022-11-01T20:56:12.383Z,7.8
2022-11-01T21:10:44.694Z,7.9
2022-11-01T21:25:21.292Z,7.9
2022-11-01T21:40:14.805Z,7.9
2022-11-01T21:54:44.386Z,8
2022-11-01T22:09:16.817Z,8.1
2022-11-01T22:23:58.511Z,8.2
2022-11-01T22:38:36.732Z,8.2
2022-11-01T22:53:08.486Z,8.3
2022-11-01T23:07:51.555Z,8.4
2022-11-01T23:22:29.301Z,8.5
2022-11-01T23:37:02.460Z,8.7
2022-11-01T23:51:38.655Z,8.8
